Offutt Air Force Base
KOFF : now visible

Aeroporto :











RITROVATECI SU...

 
LOGIN :

Iscrizione | Disclaimer

   EN    FR    IT 

 









Sommario :    VFR   VFR Marginale   IFR   IFR Intensivo   IFR Molto Intensivo
Visibilità : 
Base nubi : 
>= 8 km
>= 3000ft
5 / 8 km
1000 / 3000 ft
1500m / 5 km
500 / 1000 ft
800 / 1500m
200 / 500 ft
< 800m
< 200 ft
Simboli :   Temporali  Nebbia  Neve Forte  Precipitazioni Forti  Vento > 20 kt






- Altitudine del aeroporto : 1052 ft


KOFF - Offutt Air Force Base

ULTIMO METAR :
  • 250656Z 29007KT 10SM OVC009 M03/M04 A3008 RMK AO2A SLP203 RVRNO $

METARs OBSOLETI :
  • 250611Z AUTO 29009KT 10SM SCT009 OVC018 M M RMK AO2 SLPNO RVRNO $
  • 250556Z 27007KT 10SM BKN009 OVC015 M03/M04 A3007 RMK AO2A SLP202 4/003 RVRNO $
  • 250456Z 31009KT 10SM OVC018 M02/M04 A3007 RMK AO2A SLP200 RVRNO $

TAF TAF KOFF
Valido dal 25 a 02 ore il 26 a 08 ore UTC


250200Z 2502/2608 31009KT 9999 OVC010 610103 QNH3007INS
TEMPO 2502/2506 OVC008 610083
BECMG 2505/2506 VRB06KT 4800 BR OVC008 610083 QNH3007INS
BECMG 2514/2515 VRB06KT 9999 NSW BKN015 620153 QNH3002INS TXM01/2520Z TNM04/2512Z



MetMap, La meteo Aeronautica in un colpo d'occhio ! - Copyright ORBIFLY Dicembre 2007 - Disclaimer

ORBIFLY MET'MAP TEAM :

Programmazione e sviluppo : Alexandra Zaïnal
Concezione : Baudouin d'Aumeries
Aiuto per la programmazione : Marc-Olivier Méhu
Supporto tecnico e logistico : Manuel Goepfert
Aiuto per la traduzione : Arnaldo La Scala

Contatto : metmap@orbifly.com




FONTI E CREDITI :

   NOAA       Earth
Advisory